sensor_id;sensor_type;location;lat;lon;timestamp;P1;durP1;ratioP1;P2;durP2;ratioP2
43124;SDS011;49182;50.788;7.318;2022-09-03T00:02:27;5.32;;;1.75;;
43124;SDS011;49182;50.788;7.318;2022-09-03T00:05:03;3.00;;;1.58;;
43124;SDS011;49182;50.788;7.318;2022-09-03T00:07:34;2.75;;;1.60;;
43124;SDS011;49182;50.788;7.318;2022-09-03T00:10:10;3.55;;;1.60;;
43124;SDS011;49182;50.788;7.318;2022-09-03T00:12:43;3.20;;;1.60;;
43124;SDS011;49182;50.788;7.318;2022-09-03T00:15:13;5.13;;;1.60;;
43124;SDS011;49182;50.788;7.318;2022-09-03T00:17:43;4.68;;;2.30;;
43124;SDS011;49182;50.788;7.318;2022-09-03T00:20:16;10.70;;;1.98;;
43124;SDS011;49182;50.788;7.318;2022-09-03T00:22:46;4.63;;;1.40;;
43124;SDS011;49182;50.788;7.318;2022-09-03T00:25:18;4.07;;;1.80;;
43124;SDS011;49182;50.788;7.318;2022-09-03T00:27:53;3.47;;;1.52;;
43124;SDS011;49182;50.788;7.318;2022-09-03T00:32:51;4.25;;;1.70;;
43124;SDS011;49182;50.788;7.318;2022-09-03T00:35:24;2.97;;;1.50;;
43124;SDS011;49182;50.788;7.318;2022-09-03T00:37:53;3.42;;;1.60;;
43124;SDS011;49182;50.788;7.318;2022-09-03T00:43:17;4.55;;;1.80;;
43124;SDS011;49182;50.788;7.318;2022-09-03T00:45:54;4.28;;;1.80;;
43124;SDS011;49182;50.788;7.318;2022-09-03T00:48:29;2.78;;;1.52;;
43124;SDS011;49182;50.788;7.318;2022-09-03T00:51:04;2.90;;;1.50;;
43124;SDS011;49182;50.788;7.318;2022-09-03T00:53:42;4.95;;;1.65;;
43124;SDS011;49182;50.788;7.318;2022-09-03T00:56:17;2.88;;;1.60;;
43124;SDS011;49182;50.788;7.318;2022-09-03T00:58:53;3.13;;;1.67;;
43124;SDS011;49182;50.788;7.318;2022-09-03T01:01:35;5.22;;;1.70;;
43124;SDS011;49182;50.788;7.318;2022-09-03T01:04:12;5.10;;;1.70;;
43124;SDS011;49182;50.788;7.318;2022-09-03T01:06:54;4.88;;;1.60;;
43124;SDS011;49182;50.788;7.318;2022-09-03T01:09:31;4.43;;;1.50;;
43124;SDS011;49182;50.788;7.318;2022-09-03T01:12:12;3.22;;;1.60;;
43124;SDS011;49182;50.788;7.318;2022-09-03T01:14:47;3.40;;;1.50;;
43124;SDS011;49182;50.788;7.318;2022-09-03T01:17:27;2.97;;;1.40;;
43124;SDS011;49182;50.788;7.318;2022-09-03T01:20:11;3.30;;;1.83;;
43124;SDS011;49182;50.788;7.318;2022-09-03T01:23:13;3.80;;;1.70;;
43124;SDS011;49182;50.788;7.318;2022-09-03T01:25:58;3.33;;;1.63;;
43124;SDS011;49182;50.788;7.318;2022-09-03T01:28:40;2.25;;;1.50;;
43124;SDS011;49182;50.788;7.318;2022-09-03T01:31:36;3.50;;;1.58;;
43124;SDS011;49182;50.788;7.318;2022-09-03T01:34:12;5.90;;;2.25;;
43124;SDS011;49182;50.788;7.318;2022-09-03T01:36:47;3.83;;;1.60;;
43124;SDS011;49182;50.788;7.318;2022-09-03T01:39:26;4.47;;;1.60;;
43124;SDS011;49182;50.788;7.318;2022-09-03T01:42:00;3.30;;;1.80;;
43124;SDS011;49182;50.788;7.318;2022-09-03T01:44:38;4.00;;;1.63;;
43124;SDS011;49182;50.788;7.318;2022-09-03T01:47:21;3.97;;;1.67;;
43124;SDS011;49182;50.788;7.318;2022-09-03T01:49:59;3.13;;;1.50;;
43124;SDS011;49182;50.788;7.318;2022-09-03T01:52:35;3.67;;;1.83;;
43124;SDS011;49182;50.788;7.318;2022-09-03T01:55:11;3.72;;;1.75;;
43124;SDS011;49182;50.788;7.318;2022-09-03T01:57:51;3.17;;;1.70;;
43124;SDS011;49182;50.788;7.318;2022-09-03T02:00:23;3.45;;;1.50;;
43124;SDS011;49182;50.788;7.318;2022-09-03T02:02:52;4.07;;;1.88;;
43124;SDS011;49182;50.788;7.318;2022-09-03T02:05:19;3.42;;;1.60;;
43124;SDS011;49182;50.788;7.318;2022-09-03T02:07:48;6.38;;;1.80;;
43124;SDS011;49182;50.788;7.318;2022-09-03T02:10:19;3.08;;;1.65;;
43124;SDS011;49182;50.788;7.318;2022-09-03T02:12:48;3.42;;;1.50;;
43124;SDS011;49182;50.788;7.318;2022-09-03T02:15:19;2.85;;;1.38;;
43124;SDS011;49182;50.788;7.318;2022-09-03T02:17:50;2.65;;;1.30;;
43124;SDS011;49182;50.788;7.318;2022-09-03T02:20:21;2.45;;;1.48;;
43124;SDS011;49182;50.788;7.318;2022-09-03T02:22:51;3.10;;;1.70;;
43124;SDS011;49182;50.788;7.318;2022-09-03T02:25:18;5.20;;;1.60;;
43124;SDS011;49182;50.788;7.318;2022-09-03T02:27:48;2.75;;;1.30;;
43124;SDS011;49182;50.788;7.318;2022-09-03T02:30:16;3.15;;;1.50;;
43124;SDS011;49182;50.788;7.318;2022-09-03T02:32:43;2.95;;;1.40;;
43124;SDS011;49182;50.788;7.318;2022-09-03T02:35:11;5.70;;;1.50;;
43124;SDS011;49182;50.788;7.318;2022-09-03T02:37:38;3.28;;;1.50;;
43124;SDS011;49182;50.788;7.318;2022-09-03T02:40:05;3.03;;;1.60;;
43124;SDS011;49182;50.788;7.318;2022-09-03T02:42:33;2.67;;;1.55;;
43124;SDS011;49182;50.788;7.318;2022-09-03T02:45:03;2.45;;;1.23;;
43124;SDS011;49182;50.788;7.318;2022-09-03T02:47:35;3.67;;;1.55;;
43124;SDS011;49182;50.788;7.318;2022-09-03T02:50:06;6.40;;;1.50;;
43124;SDS011;49182;50.788;7.318;2022-09-03T02:52:34;3.75;;;1.50;;
43124;SDS011;49182;50.788;7.318;2022-09-03T02:55:00;2.90;;;1.60;;
43124;SDS011;49182;50.788;7.318;2022-09-03T02:57:27;4.85;;;1.55;;
43124;SDS011;49182;50.788;7.318;2022-09-03T02:59:53;4.28;;;1.75;;
43124;SDS011;49182;50.788;7.318;2022-09-03T03:02:20;3.13;;;1.65;;
43124;SDS011;49182;50.788;7.318;2022-09-03T03:04:47;3.70;;;1.70;;
43124;SDS011;49182;50.788;7.318;2022-09-03T03:07:14;3.70;;;1.77;;
43124;SDS011;49182;50.788;7.318;2022-09-03T03:09:42;3.50;;;1.45;;
43124;SDS011;49182;50.788;7.318;2022-09-03T03:12:08;2.95;;;1.55;;
43124;SDS011;49182;50.788;7.318;2022-09-03T03:14:35;3.78;;;1.60;;
43124;SDS011;49182;50.788;7.318;2022-09-03T03:17:01;3.60;;;1.80;;
43124;SDS011;49182;50.788;7.318;2022-09-03T03:19:28;4.40;;;1.73;;
43124;SDS011;49182;50.788;7.318;2022-09-03T03:21:55;3.85;;;1.70;;
43124;SDS011;49182;50.788;7.318;2022-09-03T03:24:21;3.30;;;1.60;;
43124;SDS011;49182;50.788;7.318;2022-09-03T03:26:49;3.10;;;1.63;;
43124;SDS011;49182;50.788;7.318;2022-09-03T03:29:16;2.47;;;1.40;;
43124;SDS011;49182;50.788;7.318;2022-09-03T03:31:43;4.00;;;1.40;;
43124;SDS011;49182;50.788;7.318;2022-09-03T03:34:09;3.70;;;1.67;;
43124;SDS011;49182;50.788;7.318;2022-09-03T03:36:36;4.93;;;1.70;;
43124;SDS011;49182;50.788;7.318;2022-09-03T03:39:03;3.67;;;1.77;;
43124;SDS011;49182;50.788;7.318;2022-09-03T03:41:30;3.45;;;1.52;;
43124;SDS011;49182;50.788;7.318;2022-09-03T03:43:59;5.18;;;1.70;;
43124;SDS011;49182;50.788;7.318;2022-09-03T03:46:29;4.28;;;1.38;;
43124;SDS011;49182;50.788;7.318;2022-09-03T03:48:57;3.10;;;1.67;;
43124;SDS011;49182;50.788;7.318;2022-09-03T03:51:23;7.03;;;1.73;;
43124;SDS011;49182;50.788;7.318;2022-09-03T03:53:52;4.55;;;1.63;;
43124;SDS011;49182;50.788;7.318;2022-09-03T03:56:20;3.50;;;1.70;;
43124;SDS011;49182;50.788;7.318;2022-09-03T03:58:47;3.40;;;1.40;;
43124;SDS011;49182;50.788;7.318;2022-09-03T04:01:15;7.22;;;1.63;;
43124;SDS011;49182;50.788;7.318;2022-09-03T04:03:43;3.33;;;1.60;;
43124;SDS011;49182;50.788;7.318;2022-09-03T04:06:11;3.78;;;1.63;;
43124;SDS011;49182;50.788;7.318;2022-09-03T04:08:39;4.03;;;1.88;;
43124;SDS011;49182;50.788;7.318;2022-09-03T04:11:10;3.00;;;1.52;;
43124;SDS011;49182;50.788;7.318;2022-09-03T04:13:38;2.60;;;1.30;;
43124;SDS011;49182;50.788;7.318;2022-09-03T04:16:06;5.25;;;1.88;;
43124;SDS011;49182;50.788;7.318;2022-09-03T04:18:36;3.28;;;1.60;;
43124;SDS011;49182;50.788;7.318;2022-09-03T04:21:04;4.03;;;1.60;;
43124;SDS011;49182;50.788;7.318;2022-09-03T04:23:31;3.15;;;1.60;;
43124;SDS011;49182;50.788;7.318;2022-09-03T04:25:59;3.05;;;1.48;;
43124;SDS011;49182;50.788;7.318;2022-09-03T04:28:26;2.90;;;1.70;;
43124;SDS011;49182;50.788;7.318;2022-09-03T04:30:53;3.90;;;1.75;;
43124;SDS011;49182;50.788;7.318;2022-09-03T04:33:20;3.28;;;1.70;;
43124;SDS011;49182;50.788;7.318;2022-09-03T04:35:51;3.35;;;1.60;;
43124;SDS011;49182;50.788;7.318;2022-09-03T04:38:17;2.97;;;1.35;;
43124;SDS011;49182;50.788;7.318;2022-09-03T04:40:50;3.13;;;1.48;;
43124;SDS011;49182;50.788;7.318;2022-09-03T04:43:17;5.22;;;1.52;;
43124;SDS011;49182;50.788;7.318;2022-09-03T04:45:43;5.22;;;1.80;;
43124;SDS011;49182;50.788;7.318;2022-09-03T04:48:10;2.65;;;1.50;;
43124;SDS011;49182;50.788;7.318;2022-09-03T04:50:37;4.38;;;1.42;;
43124;SDS011;49182;50.788;7.318;2022-09-03T04:53:05;3.35;;;1.67;;
43124;SDS011;49182;50.788;7.318;2022-09-03T04:55:33;4.47;;;1.42;;
43124;SDS011;49182;50.788;7.318;2022-09-03T04:58:01;3.38;;;1.77;;
43124;SDS011;49182;50.788;7.318;2022-09-03T05:00:27;3.40;;;1.50;;
43124;SDS011;49182;50.788;7.318;2022-09-03T05:02:54;3.15;;;1.60;;
43124;SDS011;49182;50.788;7.318;2022-09-03T05:05:21;3.65;;;1.80;;
43124;SDS011;49182;50.788;7.318;2022-09-03T05:07:47;2.65;;;1.50;;
43124;SDS011;49182;50.788;7.318;2022-09-03T05:10:15;2.85;;;1.50;;
43124;SDS011;49182;50.788;7.318;2022-09-03T05:12:42;3.30;;;1.55;;
43124;SDS011;49182;50.788;7.318;2022-09-03T05:15:09;3.50;;;1.58;;
43124;SDS011;49182;50.788;7.318;2022-09-03T05:17:35;2.55;;;1.40;;
43124;SDS011;49182;50.788;7.318;2022-09-03T05:20:03;3.30;;;1.40;;
43124;SDS011;49182;50.788;7.318;2022-09-03T05:22:31;4.82;;;1.55;;
43124;SDS011;49182;50.788;7.318;2022-09-03T05:24:57;4.10;;;1.60;;
43124;SDS011;49182;50.788;7.318;2022-09-03T05:27:25;3.35;;;1.50;;
43124;SDS011;49182;50.788;7.318;2022-09-03T05:29:51;2.38;;;1.35;;
43124;SDS011;49182;50.788;7.318;2022-09-03T05:32:18;4.18;;;1.70;;
43124;SDS011;49182;50.788;7.318;2022-09-03T05:34:45;4.30;;;1.65;;
43124;SDS011;49182;50.788;7.318;2022-09-03T05:37:11;3.10;;;1.50;;
43124;SDS011;49182;50.788;7.318;2022-09-03T05:39:38;3.13;;;1.45;;
43124;SDS011;49182;50.788;7.318;2022-09-03T05:42:05;3.97;;;1.52;;
43124;SDS011;49182;50.788;7.318;2022-09-03T05:44:33;2.67;;;1.20;;
43124;SDS011;49182;50.788;7.318;2022-09-03T05:46:59;2.60;;;1.45;;
43124;SDS011;49182;50.788;7.318;2022-09-03T05:49:26;2.72;;;1.33;;
43124;SDS011;49182;50.788;7.318;2022-09-03T05:51:53;5.35;;;1.60;;
43124;SDS011;49182;50.788;7.318;2022-09-03T05:54:23;3.58;;;1.40;;
43124;SDS011;49182;50.788;7.318;2022-09-03T05:56:50;6.63;;;1.70;;
43124;SDS011;49182;50.788;7.318;2022-09-03T05:59:16;5.50;;;1.45;;
43124;SDS011;49182;50.788;7.318;2022-09-03T06:01:45;5.40;;;1.20;;
43124;SDS011;49182;50.788;7.318;2022-09-03T06:04:17;3.33;;;1.50;;
43124;SDS011;49182;50.788;7.318;2022-09-03T06:06:45;4.28;;;1.55;;
43124;SDS011;49182;50.788;7.318;2022-09-03T06:09:13;4.18;;;1.52;;
43124;SDS011;49182;50.788;7.318;2022-09-03T06:11:41;4.38;;;1.38;;
43124;SDS011;49182;50.788;7.318;2022-09-03T06:14:09;3.25;;;1.50;;
43124;SDS011;49182;50.788;7.318;2022-09-03T06:16:37;4.75;;;1.55;;
43124;SDS011;49182;50.788;7.318;2022-09-03T06:19:07;3.20;;;1.35;;
43124;SDS011;49182;50.788;7.318;2022-09-03T06:21:35;3.13;;;1.27;;
43124;SDS011;49182;50.788;7.318;2022-09-03T06:24:02;2.75;;;1.30;;
43124;SDS011;49182;50.788;7.318;2022-09-03T06:26:29;2.20;;;1.30;;
43124;SDS011;49182;50.788;7.318;2022-09-03T06:28:56;2.38;;;1.20;;
43124;SDS011;49182;50.788;7.318;2022-09-03T06:31:23;2.92;;;1.40;;
43124;SDS011;49182;50.788;7.318;2022-09-03T06:33:50;4.88;;;1.20;;
43124;SDS011;49182;50.788;7.318;2022-09-03T06:36:18;5.28;;;1.33;;
43124;SDS011;49182;50.788;7.318;2022-09-03T06:38:46;2.72;;;1.42;;
43124;SDS011;49182;50.788;7.318;2022-09-03T06:41:14;5.65;;;1.30;;
43124;SDS011;49182;50.788;7.318;2022-09-03T06:43:41;2.25;;;1.00;;
43124;SDS011;49182;50.788;7.318;2022-09-03T06:46:08;2.08;;;0.90;;
43124;SDS011;49182;50.788;7.318;2022-09-03T06:48:37;2.83;;;1.20;;
43124;SDS011;49182;50.788;7.318;2022-09-03T06:51:05;2.35;;;1.15;;
43124;SDS011;49182;50.788;7.318;2022-09-03T06:53:35;3.20;;;1.08;;
43124;SDS011;49182;50.788;7.318;2022-09-03T06:56:04;2.58;;;1.20;;
43124;SDS011;49182;50.788;7.318;2022-09-03T06:58:33;2.80;;;1.08;;
43124;SDS011;49182;50.788;7.318;2022-09-03T07:01:03;2.38;;;1.20;;
43124;SDS011;49182;50.788;7.318;2022-09-03T07:03:31;3.35;;;1.10;;
43124;SDS011;49182;50.788;7.318;2022-09-03T07:06:01;2.80;;;1.00;;
43124;SDS011;49182;50.788;7.318;2022-09-03T07:08:29;2.38;;;1.00;;
43124;SDS011;49182;50.788;7.318;2022-09-03T07:10:57;2.75;;;0.90;;
43124;SDS011;49182;50.788;7.318;2022-09-03T07:13:24;5.70;;;1.15;;
43124;SDS011;49182;50.788;7.318;2022-09-03T07:15:57;3.35;;;1.08;;
43124;SDS011;49182;50.788;7.318;2022-09-03T07:18:25;4.38;;;1.35;;
43124;SDS011;49182;50.788;7.318;2022-09-03T07:20:51;2.67;;;0.98;;
43124;SDS011;49182;50.788;7.318;2022-09-03T07:23:23;1.70;;;0.95;;
43124;SDS011;49182;50.788;7.318;2022-09-03T07:25:51;2.90;;;1.08;;
43124;SDS011;49182;50.788;7.318;2022-09-03T07:28:20;3.22;;;0.93;;
43124;SDS011;49182;50.788;7.318;2022-09-03T07:30:47;2.33;;;1.10;;
43124;SDS011;49182;50.788;7.318;2022-09-03T07:33:13;3.78;;;1.20;;
43124;SDS011;49182;50.788;7.318;2022-09-03T07:35:40;2.40;;;0.98;;
43124;SDS011;49182;50.788;7.318;2022-09-03T07:38:07;2.67;;;1.10;;
43124;SDS011;49182;50.788;7.318;2022-09-03T07:40:33;3.97;;;1.15;;
43124;SDS011;49182;50.788;7.318;2022-09-03T07:43:00;2.60;;;0.90;;
43124;SDS011;49182;50.788;7.318;2022-09-03T07:45:28;2.22;;;1.00;;
43124;SDS011;49182;50.788;7.318;2022-09-03T07:47:54;1.77;;;0.90;;
43124;SDS011;49182;50.788;7.318;2022-09-03T07:50:21;2.55;;;1.10;;
43124;SDS011;49182;50.788;7.318;2022-09-03T07:52:48;1.67;;;0.90;;
43124;SDS011;49182;50.788;7.318;2022-09-03T07:55:15;2.50;;;1.00;;
43124;SDS011;49182;50.788;7.318;2022-09-03T07:57:41;3.97;;;1.20;;
43124;SDS011;49182;50.788;7.318;2022-09-03T08:00:08;4.88;;;1.30;;
43124;SDS011;49182;50.788;7.318;2022-09-03T08:02:38;2.92;;;0.90;;
43124;SDS011;49182;50.788;7.318;2022-09-03T08:05:10;1.98;;;0.80;;
43124;SDS011;49182;50.788;7.318;2022-09-03T08:07:37;2.53;;;1.13;;
43124;SDS011;49182;50.788;7.318;2022-09-03T08:10:07;3.55;;;1.05;;
43124;SDS011;49182;50.788;7.318;2022-09-03T08:12:34;3.13;;;1.20;;
43124;SDS011;49182;50.788;7.318;2022-09-03T08:15:01;2.90;;;1.33;;
43124;SDS011;49182;50.788;7.318;2022-09-03T08:17:28;1.83;;;0.93;;
43124;SDS011;49182;50.788;7.318;2022-09-03T08:19:56;2.58;;;1.23;;
43124;SDS011;49182;50.788;7.318;2022-09-03T08:22:25;4.45;;;1.17;;
43124;SDS011;49182;50.788;7.318;2022-09-03T08:24:52;5.25;;;1.20;;
43124;SDS011;49182;50.788;7.318;2022-09-03T08:27:19;2.10;;;0.93;;
43124;SDS011;49182;50.788;7.318;2022-09-03T08:29:46;2.63;;;1.20;;
43124;SDS011;49182;50.788;7.318;2022-09-03T08:32:12;3.50;;;1.30;;
43124;SDS011;49182;50.788;7.318;2022-09-03T08:34:39;2.75;;;1.10;;
43124;SDS011;49182;50.788;7.318;2022-09-03T08:37:07;2.20;;;0.95;;
43124;SDS011;49182;50.788;7.318;2022-09-03T08:39:34;3.53;;;1.30;;
43124;SDS011;49182;50.788;7.318;2022-09-03T08:45:02;4.72;;;1.33;;
43124;SDS011;49182;50.788;7.318;2022-09-03T08:47:36;4.47;;;1.30;;
43124;SDS011;49182;50.788;7.318;2022-09-03T08:50:09;2.47;;;0.95;;
43124;SDS011;49182;50.788;7.318;2022-09-03T08:52:44;2.22;;;1.10;;
43124;SDS011;49182;50.788;7.318;2022-09-03T08:55:15;2.47;;;1.20;;
43124;SDS011;49182;50.788;7.318;2022-09-03T08:57:48;3.08;;;1.23;;
43124;SDS011;49182;50.788;7.318;2022-09-03T09:00:18;3.08;;;1.17;;
43124;SDS011;49182;50.788;7.318;2022-09-03T09:02:47;4.15;;;1.20;;
43124;SDS011;49182;50.788;7.318;2022-09-03T09:05:27;2.85;;;1.20;;
43124;SDS011;49182;50.788;7.318;2022-09-03T09:08:08;3.03;;;1.30;;
43124;SDS011;49182;50.788;7.318;2022-09-03T09:10:43;2.30;;;1.10;;
43124;SDS011;49182;50.788;7.318;2022-09-03T09:13:15;3.60;;;1.30;;
43124;SDS011;49182;50.788;7.318;2022-09-03T09:15:51;2.88;;;1.20;;
43124;SDS011;49182;50.788;7.318;2022-09-03T09:18:26;4.25;;;1.20;;
43124;SDS011;49182;50.788;7.318;2022-09-03T09:21:06;4.05;;;1.40;;
43124;SDS011;49182;50.788;7.318;2022-09-03T09:23:39;3.55;;;1.30;;
43124;SDS011;49182;50.788;7.318;2022-09-03T09:26:09;5.10;;;1.08;;
43124;SDS011;49182;50.788;7.318;2022-09-03T09:28:38;2.35;;;1.20;;
43124;SDS011;49182;50.788;7.318;2022-09-03T09:31:05;3.70;;;1.23;;
43124;SDS011;49182;50.788;7.318;2022-09-03T09:33:36;3.33;;;1.20;;
43124;SDS011;49182;50.788;7.318;2022-09-03T09:36:03;3.35;;;1.42;;
43124;SDS011;49182;50.788;7.318;2022-09-03T09:38:32;18.20;;;2.55;;
43124;SDS011;49182;50.788;7.318;2022-09-03T09:41:12;4.03;;;1.52;;
43124;SDS011;49182;50.788;7.318;2022-09-03T09:43:41;3.22;;;1.27;;
43124;SDS011;49182;50.788;7.318;2022-09-03T09:46:10;2.47;;;1.20;;
43124;SDS011;49182;50.788;7.318;2022-09-03T09:48:43;6.47;;;1.40;;
43124;SDS011;49182;50.788;7.318;2022-09-03T09:51:17;3.00;;;1.35;;
43124;SDS011;49182;50.788;7.318;2022-09-03T09:53:59;2.10;;;1.02;;
43124;SDS011;49182;50.788;7.318;2022-09-03T09:56:28;4.80;;;1.13;;
43124;SDS011;49182;50.788;7.318;2022-09-03T09:59:02;2.33;;;1.20;;
43124;SDS011;49182;50.788;7.318;2022-09-03T10:01:31;2.90;;;1.25;;
43124;SDS011;49182;50.788;7.318;2022-09-03T10:04:07;8.82;;;1.70;;
43124;SDS011;49182;50.788;7.318;2022-09-03T10:06:43;3.00;;;1.50;;
43124;SDS011;49182;50.788;7.318;2022-09-03T10:09:12;3.83;;;1.30;;
43124;SDS011;49182;50.788;7.318;2022-09-03T10:11:43;4.15;;;1.13;;
43124;SDS011;49182;50.788;7.318;2022-09-03T10:14:16;2.72;;;1.38;;
43124;SDS011;49182;50.788;7.318;2022-09-03T10:16:49;4.10;;;1.20;;
43124;SDS011;49182;50.788;7.318;2022-09-03T10:19:22;3.53;;;1.38;;
43124;SDS011;49182;50.788;7.318;2022-09-03T10:22:10;3.97;;;1.33;;
43124;SDS011;49182;50.788;7.318;2022-09-03T10:24:46;4.00;;;1.40;;
43124;SDS011;49182;50.788;7.318;2022-09-03T10:27:22;5.68;;;1.50;;
43124;SDS011;49182;50.788;7.318;2022-09-03T10:29:48;3.75;;;1.45;;
43124;SDS011;49182;50.788;7.318;2022-09-03T10:32:20;4.68;;;1.27;;
43124;SDS011;49182;50.788;7.318;2022-09-03T10:35:17;3.47;;;1.20;;
43124;SDS011;49182;50.788;7.318;2022-09-03T10:37:50;3.88;;;1.48;;
43124;SDS011;49182;50.788;7.318;2022-09-03T10:40:28;7.35;;;1.35;;
43124;SDS011;49182;50.788;7.318;2022-09-03T10:46:05;2.75;;;1.15;;
43124;SDS011;49182;50.788;7.318;2022-09-03T10:48:38;2.80;;;1.40;;
43124;SDS011;49182;50.788;7.318;2022-09-03T10:51:16;3.67;;;1.25;;
43124;SDS011;49182;50.788;7.318;2022-09-03T10:53:51;4.90;;;1.33;;
43124;SDS011;49182;50.788;7.318;2022-09-03T10:56:30;3.78;;;1.20;;
43124;SDS011;49182;50.788;7.318;2022-09-03T10:59:06;3.65;;;1.40;;
43124;SDS011;49182;50.788;7.318;2022-09-03T11:01:46;3.00;;;1.42;;
43124;SDS011;49182;50.788;7.318;2022-09-03T11:07:04;2.83;;;1.33;;
43124;SDS011;49182;50.788;7.318;2022-09-03T11:09:34;3.10;;;1.35;;
43124;SDS011;49182;50.788;7.318;2022-09-03T11:12:04;5.07;;;1.60;;
43124;SDS011;49182;50.788;7.318;2022-09-03T11:17:06;2.80;;;1.42;;
43124;SDS011;49182;50.788;7.318;2022-09-03T11:19:40;3.30;;;1.30;;
43124;SDS011;49182;50.788;7.318;2022-09-03T11:22:13;3.83;;;1.40;;
43124;SDS011;49182;50.788;7.318;2022-09-03T11:24:48;4.03;;;1.60;;
43124;SDS011;49182;50.788;7.318;2022-09-03T11:27:21;3.95;;;1.60;;
43124;SDS011;49182;50.788;7.318;2022-09-03T11:29:59;3.38;;;1.50;;
43124;SDS011;49182;50.788;7.318;2022-09-03T11:32:33;5.00;;;1.65;;
43124;SDS011;49182;50.788;7.318;2022-09-03T11:35:12;5.13;;;1.60;;
43124;SDS011;49182;50.788;7.318;2022-09-03T11:37:45;3.13;;;1.60;;
43124;SDS011;49182;50.788;7.318;2022-09-03T11:40:18;3.38;;;1.40;;
43124;SDS011;49182;50.788;7.318;2022-09-03T11:42:45;4.53;;;1.80;;
43124;SDS011;49182;50.788;7.318;2022-09-03T11:45:19;4.25;;;1.52;;
43124;SDS011;49182;50.788;7.318;2022-09-03T11:47:48;3.55;;;1.58;;
43124;SDS011;49182;50.788;7.318;2022-09-03T11:50:18;3.35;;;1.50;;
43124;SDS011;49182;50.788;7.318;2022-09-03T11:52:47;2.90;;;1.60;;
43124;SDS011;49182;50.788;7.318;2022-09-03T11:55:28;4.07;;;1.70;;
43124;SDS011;49182;50.788;7.318;2022-09-03T11:58:11;4.95;;;1.67;;
43124;SDS011;49182;50.788;7.318;2022-09-03T12:00:43;4.72;;;1.42;;
43124;SDS011;49182;50.788;7.318;2022-09-03T12:03:11;3.33;;;1.45;;
43124;SDS011;49182;50.788;7.318;2022-09-03T12:05:41;3.22;;;1.67;;
43124;SDS011;49182;50.788;7.318;2022-09-03T12:11:29;5.30;;;1.85;;
43124;SDS011;49182;50.788;7.318;2022-09-03T12:14:07;3.97;;;1.75;;
43124;SDS011;49182;50.788;7.318;2022-09-03T12:16:49;3.03;;;1.65;;
43124;SDS011;49182;50.788;7.318;2022-09-03T12:19:39;3.58;;;1.55;;
43124;SDS011;49182;50.788;7.318;2022-09-03T12:22:14;3.25;;;1.80;;
43124;SDS011;49182;50.788;7.318;2022-09-03T12:24:41;3.30;;;1.73;;
43124;SDS011;49182;50.788;7.318;2022-09-03T12:27:08;3.58;;;1.50;;
43124;SDS011;49182;50.788;7.318;2022-09-03T12:29:38;4.75;;;2.10;;
43124;SDS011;49182;50.788;7.318;2022-09-03T12:32:18;4.05;;;1.70;;
43124;SDS011;49182;50.788;7.318;2022-09-03T12:34:47;3.45;;;1.40;;
43124;SDS011;49182;50.788;7.318;2022-09-03T12:37:18;4.10;;;1.63;;
43124;SDS011;49182;50.788;7.318;2022-09-03T12:40:14;4.18;;;1.85;;
43124;SDS011;49182;50.788;7.318;2022-09-03T12:42:42;7.10;;;1.92;;
43124;SDS011;49182;50.788;7.318;2022-09-03T12:45:09;3.42;;;1.60;;
43124;SDS011;49182;50.788;7.318;2022-09-03T12:47:38;3.92;;;1.60;;
43124;SDS011;49182;50.788;7.318;2022-09-03T12:50:07;2.85;;;1.50;;
43124;SDS011;49182;50.788;7.318;2022-09-03T12:52:35;5.18;;;1.83;;
43124;SDS011;49182;50.788;7.318;2022-09-03T12:55:06;3.42;;;1.50;;
43124;SDS011;49182;50.788;7.318;2022-09-03T12:57:39;4.43;;;1.60;;
43124;SDS011;49182;50.788;7.318;2022-09-03T13:00:09;3.80;;;1.50;;
43124;SDS011;49182;50.788;7.318;2022-09-03T13:02:43;4.68;;;1.60;;
43124;SDS011;49182;50.788;7.318;2022-09-03T13:05:17;3.55;;;1.60;;
43124;SDS011;49182;50.788;7.318;2022-09-03T13:07:47;5.05;;;1.50;;
43124;SDS011;49182;50.788;7.318;2022-09-03T13:10:22;6.05;;;1.80;;
43124;SDS011;49182;50.788;7.318;2022-09-03T13:12:56;2.95;;;1.45;;
43124;SDS011;49182;50.788;7.318;2022-09-03T13:15:24;6.22;;;1.70;;
43124;SDS011;49182;50.788;7.318;2022-09-03T13:17:56;4.07;;;1.45;;
43124;SDS011;49182;50.788;7.318;2022-09-03T13:20:34;2.92;;;1.50;;
43124;SDS011;49182;50.788;7.318;2022-09-03T13:23:13;3.13;;;1.40;;
43124;SDS011;49182;50.788;7.318;2022-09-03T13:25:54;3.35;;;1.70;;
43124;SDS011;49182;50.788;7.318;2022-09-03T13:28:35;3.20;;;1.58;;
43124;SDS011;49182;50.788;7.318;2022-09-03T13:31:18;2.70;;;1.40;;
43124;SDS011;49182;50.788;7.318;2022-09-03T13:33:53;3.15;;;1.30;;
43124;SDS011;49182;50.788;7.318;2022-09-03T13:36:25;3.97;;;1.58;;
43124;SDS011;49182;50.788;7.318;2022-09-03T13:38:56;3.47;;;1.80;;
43124;SDS011;49182;50.788;7.318;2022-09-03T13:41:29;2.88;;;1.40;;
43124;SDS011;49182;50.788;7.318;2022-09-03T13:44:03;3.67;;;1.63;;
43124;SDS011;49182;50.788;7.318;2022-09-03T13:46:38;4.15;;;1.75;;
43124;SDS011;49182;50.788;7.318;2022-09-03T13:49:12;3.17;;;1.70;;
43124;SDS011;49182;50.788;7.318;2022-09-03T13:54:19;4.50;;;1.60;;
43124;SDS011;49182;50.788;7.318;2022-09-03T13:57:15;4.45;;;1.80;;
43124;SDS011;49182;50.788;7.318;2022-09-03T13:59:54;3.03;;;1.40;;
43124;SDS011;49182;50.788;7.318;2022-09-03T14:02:26;3.17;;;1.40;;
43124;SDS011;49182;50.788;7.318;2022-09-03T14:05:02;2.70;;;1.48;;
43124;SDS011;49182;50.788;7.318;2022-09-03T14:07:37;4.10;;;1.60;;
43124;SDS011;49182;50.788;7.318;2022-09-03T14:10:17;3.10;;;1.58;;
43124;SDS011;49182;50.788;7.318;2022-09-03T14:12:48;3.28;;;1.40;;
43124;SDS011;49182;50.788;7.318;2022-09-03T14:15:28;3.72;;;1.73;;
43124;SDS011;49182;50.788;7.318;2022-09-03T14:18:01;2.58;;;1.40;;
43124;SDS011;49182;50.788;7.318;2022-09-03T14:20:40;4.88;;;1.40;;
43124;SDS011;49182;50.788;7.318;2022-09-03T14:23:18;3.20;;;1.60;;
43124;SDS011;49182;50.788;7.318;2022-09-03T14:25:53;3.03;;;1.35;;
43124;SDS011;49182;50.788;7.318;2022-09-03T14:28:26;2.60;;;1.33;;
43124;SDS011;49182;50.788;7.318;2022-09-03T14:30:58;2.70;;;1.20;;
43124;SDS011;49182;50.788;7.318;2022-09-03T14:33:35;2.78;;;1.40;;
43124;SDS011;49182;50.788;7.318;2022-09-03T14:36:13;3.95;;;0.95;;
43124;SDS011;49182;50.788;7.318;2022-09-03T14:38:51;1.92;;;1.10;;
43124;SDS011;49182;50.788;7.318;2022-09-03T14:41:43;2.47;;;1.10;;
43124;SDS011;49182;50.788;7.318;2022-09-03T14:44:26;3.15;;;1.10;;
43124;SDS011;49182;50.788;7.318;2022-09-03T14:47:06;2.25;;;1.17;;
43124;SDS011;49182;50.788;7.318;2022-09-03T14:49:51;2.55;;;1.20;;
43124;SDS011;49182;50.788;7.318;2022-09-03T14:52:37;2.63;;;1.00;;
43124;SDS011;49182;50.788;7.318;2022-09-03T14:55:21;2.28;;;1.00;;
43124;SDS011;49182;50.788;7.318;2022-09-03T15:00:54;2.70;;;1.00;;
43124;SDS011;49182;50.788;7.318;2022-09-03T15:03:39;2.17;;;1.05;;
43124;SDS011;49182;50.788;7.318;2022-09-03T15:06:24;3.72;;;1.10;;
43124;SDS011;49182;50.788;7.318;2022-09-03T15:11:59;3.60;;;1.10;;
43124;SDS011;49182;50.788;7.318;2022-09-03T15:14:34;2.30;;;1.08;;
43124;SDS011;49182;50.788;7.318;2022-09-03T15:17:18;1.60;;;0.85;;
43124;SDS011;49182;50.788;7.318;2022-09-03T15:19:56;1.50;;;0.90;;
43124;SDS011;49182;50.788;7.318;2022-09-03T15:25:17;3.33;;;1.00;;
43124;SDS011;49182;50.788;7.318;2022-09-03T15:28:00;3.13;;;1.38;;
43124;SDS011;49182;50.788;7.318;2022-09-03T15:30:35;2.35;;;1.17;;
43124;SDS011;49182;50.788;7.318;2022-09-03T15:33:16;3.00;;;1.20;;
43124;SDS011;49182;50.788;7.318;2022-09-03T15:35:52;3.22;;;1.15;;
43124;SDS011;49182;50.788;7.318;2022-09-03T15:38:39;3.92;;;1.23;;
43124;SDS011;49182;50.788;7.318;2022-09-03T15:41:19;2.97;;;1.13;;
43124;SDS011;49182;50.788;7.318;2022-09-03T15:43:58;2.03;;;1.15;;
43124;SDS011;49182;50.788;7.318;2022-09-03T15:46:29;2.35;;;1.15;;
43124;SDS011;49182;50.788;7.318;2022-09-03T15:49:04;2.80;;;1.10;;